Terminal Aerodrome Forecast
Issued by NWS

Home | Current Version | Previous Version | Graphics & Text | Print | Product List | Glossary On
Versions: 1 2 3 4 5 6 7 8 9 10 11 12 13 14 15 16 17 18
279
FTUS43 KMPX 170523
TAFRWF
TAF
KRWF 170523Z 1706/1806 33006KT 2SM BR OVC004
     FM171000 32007KT 5SM BR SCT005
     FM171400 29007KT P6SM SCT150
     FM172000 24006KT P6SM SCT250=

USA.gov is the U.S. government's official web portal to all federal, state and local government web resources and services.